Time;durP1;ratioP1;P1;durP2;ratioP2;P2;SDS_P1;SDS_P2;PMS_P1;PMS_P2;Temp;Humidity;BMP_temperature;BMP_pressure;BME280_temperature;BME280_humidity;BME280_pressure;Samples;Min_cycle;Max_cycle;Signal;HPM_P1;HPM_P2
2023/01/12 00:01:46;;;;;;;0.37;0.37;;;;;;;;;;7386221;19;20189;-60
2023/01/12 00:04:12;;;;;;;0.40;0.40;;;;;;;;;;7385784;19;20145;-60
2023/01/12 00:06:37;;;;;;;0.30;0.30;;;;;;;;;;7386845;19;20147;-60
2023/01/12 00:09:04;;;;;;;0.63;0.53;;;;;;;;;;7386470;19;20125;-60
2023/01/12 00:11:29;;;;;;;0.40;0.40;;;;;;;;;;7390339;19;20125;-60
2023/01/12 00:13:55;;;;;;;0.30;0.30;;;;;;;;;;7384230;19;20141;-60
2023/01/12 00:16:34;;;;;;;0.50;0.50;;;;;;;;;;7388698;19;20128;-60
2023/01/12 00:19:20;;;;;;;0.43;0.43;;;;;;;;;;7388994;19;20146;-61
2023/01/12 00:22:01;;;;;;;0.40;0.40;;;;;;;;;;7390976;19;20192;-60
2023/01/12 00:24:29;;;;;;;0.27;0.27;;;;;;;;;;7387228;19;20149;-60
2023/01/12 00:26:56;;;;;;;0.20;0.20;;;;;;;;;;7384211;19;20519;-60
2023/01/12 00:29:23;;;;;;;0.47;0.47;;;;;;;;;;7391640;19;20129;-60
2023/01/12 00:31:48;;;;;;;0.30;0.30;;;;;;;;;;7387951;19;20140;-60
2023/01/12 00:34:14;;;;;;;0.50;0.50;;;;;;;;;;7382741;19;20514;-60
2023/01/12 00:36:39;;;;;;;0.20;0.20;;;;;;;;;;7374171;19;20610;-60
2023/01/12 00:39:05;;;;;;;0.20;0.20;;;;;;;;;;7374710;19;20141;-61
2023/01/12 00:46:58;;;;;;;0.47;0.47;;;;;;;;;;7390072;19;20131;-60
2023/01/12 00:49:23;;;;;;;0.20;0.20;;;;;;;;;;7385527;19;20674;-60
2023/01/12 00:51:48;;;;;;;0.37;0.37;;;;;;;;;;7378582;19;20121;-60
2023/01/12 00:54:14;;;;;;;0.20;0.20;;;;;;;;;;7389763;19;20137;-60
2023/01/12 00:56:39;;;;;;;0.40;0.40;;;;;;;;;;7391062;19;20125;-60
2023/01/12 00:59:05;;;;;;;0.40;0.40;;;;;;;;;;7389220;19;20117;-60
2023/01/12 01:01:32;;;;;;;0.30;0.30;;;;;;;;;;7390922;19;20441;-60
2023/01/12 01:03:57;;;;;;;0.20;0.20;;;;;;;;;;7384196;19;20149;-60
2023/01/12 01:06:23;;;;;;;0.50;0.50;;;;;;;;;;7389309;19;20503;-60
2023/01/12 01:08:49;;;;;;;0.30;0.30;;;;;;;;;;7389734;19;20129;-61
2023/01/12 01:11:15;;;;;;;0.30;0.30;;;;;;;;;;7388371;19;20624;-61
2023/01/12 01:13:42;;;;;;;0.40;0.40;;;;;;;;;;7387967;19;20148;-61
2023/01/12 01:16:09;;;;;;;0.30;0.30;;;;;;;;;;7387664;19;20598;-61
2023/01/12 01:18:34;;;;;;;1.00;0.60;;;;;;;;;;7384495;19;20595;-60
2023/01/12 01:21:00;;;;;;;0.30;0.30;;;;;;;;;;7389599;19;20140;-60
2023/01/12 01:23:27;;;;;;;0.20;0.20;;;;;;;;;;7386478;19;20133;-60
2023/01/12 01:25:52;;;;;;;0.20;0.20;;;;;;;;;;7388608;19;20488;-60
2023/01/12 01:28:18;;;;;;;0.20;0.20;;;;;;;;;;7385501;19;20133;-60
2023/01/12 01:30:44;;;;;;;0.20;0.20;;;;;;;;;;7387724;19;20464;-60
2023/01/12 01:33:10;;;;;;;0.30;0.30;;;;;;;;;;7383120;19;20137;-60
2023/01/12 01:35:35;;;;;;;0.30;0.30;;;;;;;;;;7387305;19;20109;-60
2023/01/12 01:38:01;;;;;;;0.20;0.20;;;;;;;;;;7389589;19;20217;-60
2023/01/12 01:40:33;;;;;;;0.20;0.20;;;;;;;;;;7388697;19;20120;-60
2023/01/12 01:43:04;;;;;;;0.30;0.30;;;;;;;;;;7388706;19;20210;-60
2023/01/12 01:45:42;;;;;;;0.30;0.30;;;;;;;;;;7394987;19;20591;-60
2023/01/12 01:48:11;;;;;;;0.20;0.20;;;;;;;;;;7394768;19;20137;-60
2023/01/12 01:50:43;;;;;;;0.20;0.20;;;;;;;;;;7395469;19;20192;-60
2023/01/12 01:53:20;;;;;;;0.30;0.30;;;;;;;;;;7390451;19;20630;-60
2023/01/12 01:55:50;;;;;;;0.30;0.30;;;;;;;;;;7393654;19;20121;-60
2023/01/12 01:58:23;;;;;;;0.57;0.47;;;;;;;;;;7392973;19;20137;-60
2023/01/12 02:00:57;;;;;;;0.33;0.33;;;;;;;;;;7394481;19;20591;-60
2023/01/12 02:03:27;;;;;;;0.20;0.20;;;;;;;;;;7392113;19;20507;-61
2023/01/12 02:05:54;;;;;;;0.40;0.40;;;;;;;;;;7392232;19;20591;-61
2023/01/12 02:08:33;;;;;;;0.30;0.30;;;;;;;;;;7388174;19;20525;-60
2023/01/12 02:11:00;;;;;;;0.20;0.20;;;;;;;;;;7392129;19;20623;-62
2023/01/12 02:16:21;;;;;;;0.37;0.37;;;;;;;;;;7394314;19;20128;-60
2023/01/12 02:19:00;;;;;;;0.20;0.20;;;;;;;;;;7392809;19;20143;-60
2023/01/12 02:21:50;;;;;;;0.27;0.27;;;;;;;;;;7391321;19;20467;-60
2023/01/12 02:24:39;;;;;;;0.30;0.30;;;;;;;;;;7391550;19;20523;-60
2023/01/12 02:27:28;;;;;;;0.30;0.30;;;;;;;;;;7390957;19;20573;-60
2023/01/12 02:30:09;;;;;;;0.33;0.33;;;;;;;;;;7392771;19;20537;-60
2023/01/12 02:33:15;;;;;;;0.63;0.50;;;;;;;;;;7394069;19;20610;-60
2023/01/12 02:36:04;;;;;;;0.50;0.50;;;;;;;;;;7393757;19;20501;-60
2023/01/12 02:38:45;;;;;;;0.40;0.40;;;;;;;;;;7389137;19;20479;-60
2023/01/12 02:42:39;;;;;;;0.50;0.50;;;;;;;;;;7393237;19;20117;-60
2023/01/12 02:44:21;;;;;;;0.30;0.30;;;;;;;;;;7392046;19;20159;-60
2023/01/12 02:46:56;;;;;;;0.20;0.20;;;;;;;;;;7391923;19;20121;-60
2023/01/12 02:49:22;;;;;;;0.20;0.20;;;;;;;;;;7392516;19;20132;-60
2023/01/12 02:51:57;;;;;;;0.20;0.20;;;;;;;;;;7395114;19;20125;-60
2023/01/12 02:54:32;;;;;;;0.20;0.20;;;;;;;;;;7388476;19;20615;-60
2023/01/12 02:57:13;;;;;;;0.30;0.30;;;;;;;;;;7391663;19;20168;-60
2023/01/12 02:59:42;;;;;;;0.30;0.30;;;;;;;;;;7394281;19;20130;-60
2023/01/12 03:02:17;;;;;;;0.30;0.30;;;;;;;;;;7392757;19;20125;-60
2023/01/12 03:04:43;;;;;;;0.20;0.20;;;;;;;;;;7391381;19;20507;-60
2023/01/12 03:07:33;;;;;;;0.30;0.30;;;;;;;;;;7390508;19;20117;-60
2023/01/12 03:10:14;;;;;;;0.50;0.50;;;;;;;;;;7390865;19;20473;-60
2023/01/12 03:12:43;;;;;;;0.40;0.40;;;;;;;;;;7392493;19;20593;-60
2023/01/12 03:15:17;;;;;;;0.30;0.30;;;;;;;;;;7390814;19;20253;-60
2023/01/12 03:17:57;;;;;;;0.20;0.20;;;;;;;;;;7392414;19;20117;-60
2023/01/12 03:20:28;;;;;;;0.30;0.30;;;;;;;;;;7392410;19;20148;-60
2023/01/12 03:23:02;;;;;;;0.37;0.37;;;;;;;;;;7390430;19;20603;-60
2023/01/12 03:25:30;;;;;;;0.20;0.20;;;;;;;;;;7392199;19;20140;-61
2023/01/12 03:27:57;;;;;;;0.23;0.23;;;;;;;;;;7388197;19;20113;-61
2023/01/12 03:30:41;;;;;;;0.40;0.40;;;;;;;;;;7390324;19;20132;-61
2023/01/12 03:33:07;;;;;;;0.30;0.30;;;;;;;;;;7390411;19;20109;-61
2023/01/12 03:36:01;;;;;;;0.20;0.20;;;;;;;;;;7391030;19;20360;-61
2023/01/12 03:38:37;;;;;;;0.20;0.20;;;;;;;;;;7387309;19;20180;-61
2023/01/12 03:41:07;;;;;;;0.37;0.37;;;;;;;;;;7391974;19;20125;-61
2023/01/12 03:43:53;;;;;;;0.20;0.20;;;;;;;;;;7386374;19;20148;-61
2023/01/12 03:46:21;;;;;;;0.20;0.20;;;;;;;;;;7390071;19;20169;-61
2023/01/12 03:48:53;;;;;;;0.30;0.30;;;;;;;;;;7391472;19;20121;-61
2023/01/12 03:51:22;;;;;;;0.20;0.20;;;;;;;;;;7389475;19;20117;-61
2023/01/12 03:53:48;;;;;;;1.23;0.63;;;;;;;;;;7390886;19;20152;-61
2023/01/12 03:56:15;;;;;;;0.30;0.30;;;;;;;;;;7388478;19;20145;-61
2023/01/12 03:58:41;;;;;;;0.30;0.30;;;;;;;;;;7388122;19;20156;-63
2023/01/12 04:01:06;;;;;;;0.30;0.30;;;;;;;;;;7390563;19;20113;-61
2023/01/12 04:03:31;;;;;;;0.30;0.30;;;;;;;;;;7389703;19;20213;-61
2023/01/12 04:05:57;;;;;;;0.47;0.47;;;;;;;;;;7389922;19;20128;-63
2023/01/12 04:08:22;;;;;;;0.37;0.37;;;;;;;;;;7387060;19;20626;-63
2023/01/12 04:10:47;;;;;;;0.30;0.30;;;;;;;;;;7388113;19;20122;-61
2023/01/12 04:13:12;;;;;;;0.20;0.20;;;;;;;;;;7389367;19;20596;-61
2023/01/12 04:15:41;;;;;;;0.30;0.30;;;;;;;;;;7391212;19;20113;-61
2023/01/12 04:18:08;;;;;;;0.50;0.50;;;;;;;;;;7391947;19;20148;-62
2023/01/12 04:20:37;;;;;;;0.30;0.30;;;;;;;;;;7388243;19;20109;-61
2023/01/12 04:23:02;;;;;;;0.47;0.47;;;;;;;;;;7388900;19;20134;-61
2023/01/12 04:25:27;;;;;;;0.20;0.20;;;;;;;;;;7388692;19;20624;-61
2023/01/12 04:28:03;;;;;;;0.20;0.20;;;;;;;;;;7389914;19;20148;-61
2023/01/12 04:30:30;;;;;;;0.30;0.30;;;;;;;;;;7387189;19;20184;-61
2023/01/12 04:32:56;;;;;;;0.20;0.20;;;;;;;;;;7389649;19;20594;-61
2023/01/12 04:35:23;;;;;;;0.30;0.30;;;;;;;;;;7391390;19;20109;-61
2023/01/12 04:37:48;;;;;;;0.20;0.20;;;;;;;;;;7387455;19;20547;-61
2023/01/12 04:40:15;;;;;;;0.20;0.20;;;;;;;;;;7390169;19;20109;-61
2023/01/12 04:43:01;;;;;;;0.30;0.30;;;;;;;;;;7390607;19;20128;-61
2023/01/12 04:45:27;;;;;;;0.30;0.30;;;;;;;;;;7391288;19;20137;-61
2023/01/12 04:47:52;;;;;;;0.30;0.30;;;;;;;;;;7384964;19;20607;-61
2023/01/12 04:50:18;;;;;;;1.13;0.40;;;;;;;;;;7389943;19;20120;-61
2023/01/12 04:52:44;;;;;;;0.20;0.20;;;;;;;;;;7390638;19;20609;-61
2023/01/12 04:55:09;;;;;;;0.20;0.20;;;;;;;;;;7389502;19;20148;-61
2023/01/12 04:57:34;;;;;;;0.30;0.30;;;;;;;;;;7388205;19;20113;-61
2023/01/12 05:00:00;;;;;;;0.30;0.30;;;;;;;;;;7390204;19;20117;-61
2023/01/12 05:02:26;;;;;;;0.30;0.30;;;;;;;;;;7390382;19;20128;-61
2023/01/12 05:04:51;;;;;;;0.47;0.47;;;;;;;;;;7389333;19;20156;-61
2023/01/12 05:07:17;;;;;;;0.70;0.70;;;;;;;;;;7378848;19;20138;-61
2023/01/12 05:12:26;;;;;;;0.47;0.47;;;;;;;;;;7391865;19;20168;-61
2023/01/12 05:14:51;;;;;;;0.20;0.20;;;;;;;;;;7386552;19;20137;-61
2023/01/12 05:17:17;;;;;;;0.20;0.20;;;;;;;;;;7388850;19;20124;-61
2023/01/12 05:19:42;;;;;;;0.33;0.33;;;;;;;;;;7371785;19;20125;-61
2023/01/12 05:22:08;;;;;;;0.33;0.33;;;;;;;;;;7383398;19;20125;-61
2023/01/12 05:24:33;;;;;;;0.30;0.30;;;;;;;;;;7383636;19;20141;-61
2023/01/12 05:26:59;;;;;;;0.30;0.30;;;;;;;;;;7384479;19;20132;-61
2023/01/12 05:29:25;;;;;;;0.73;0.73;;;;;;;;;;7384295;19;20140;-61
2023/01/12 05:31:51;;;;;;;1.03;0.73;;;;;;;;;;7377920;19;22109;-61
2023/01/12 05:34:19;;;;;;;0.60;0.60;;;;;;;;;;7375524;19;20485;-61
2023/01/12 05:36:46;;;;;;;0.30;0.30;;;;;;;;;;7385085;19;20545;-61
2023/01/12 05:39:11;;;;;;;0.30;0.30;;;;;;;;;;7386549;19;20154;-61
2023/01/12 05:41:36;;;;;;;0.33;0.33;;;;;;;;;;7385253;19;20129;-61
2023/01/12 05:44:02;;;;;;;0.30;0.30;;;;;;;;;;7382078;19;20149;-61
2023/01/12 05:46:29;;;;;;;0.40;0.40;;;;;;;;;;7380265;19;20504;-61
2023/01/12 05:48:55;;;;;;;0.43;0.43;;;;;;;;;;7378584;19;20121;-61
2023/01/12 05:51:22;;;;;;;0.30;0.30;;;;;;;;;;7384965;19;20121;-61
2023/01/12 05:53:47;;;;;;;0.50;0.50;;;;;;;;;;7384177;19;20145;-61
2023/01/12 05:56:21;;;;;;;0.30;0.30;;;;;;;;;;7380501;19;20469;-61
2023/01/12 05:58:52;;;;;;;0.30;0.30;;;;;;;;;;7385959;19;20128;-61
2023/01/12 06:01:19;;;;;;;1.17;0.60;;;;;;;;;;7383039;19;20141;-61
2023/01/12 06:03:51;;;;;;;0.20;0.20;;;;;;;;;;7386408;19;20137;-61
2023/01/12 06:06:17;;;;;;;1.13;0.43;;;;;;;;;;7385581;19;20125;-61
2023/01/12 06:08:43;;;;;;;0.30;0.30;;;;;;;;;;7386849;19;20121;-61
2023/01/12 06:13:55;;;;;;;0.30;0.30;;;;;;;;;;7374823;19;20158;-61
2023/01/12 06:13:56;;;;;;;0.20;0.20;;;;;;;;;;7383580;19;20152;-61
2023/01/12 06:16:22;;;;;;;0.20;0.20;;;;;;;;;;7385935;19;20121;-61
2023/01/12 06:18:47;;;;;;;0.30;0.30;;;;;;;;;;7378907;19;20117;-61
2023/01/12 06:21:13;;;;;;;0.60;0.60;;;;;;;;;;7385892;19;20145;-61
2023/01/12 06:23:38;;;;;;;0.87;0.50;;;;;;;;;;7381455;19;20165;-61
2023/01/12 06:26:05;;;;;;;0.30;0.30;;;;;;;;;;7378669;19;20455;-61
2023/01/12 06:28:30;;;;;;;0.40;0.40;;;;;;;;;;7377141;19;20129;-61
2023/01/12 06:30:56;;;;;;;2.53;0.93;;;;;;;;;;7385117;19;20528;-61
2023/01/12 06:33:22;;;;;;;0.40;0.40;;;;;;;;;;7391566;19;20156;-61
2023/01/12 06:35:48;;;;;;;0.40;0.40;;;;;;;;;;7388767;19;20140;-61
2023/01/12 06:38:14;;;;;;;0.30;0.30;;;;;;;;;;7390620;19;20184;-61
2023/01/12 06:40:39;;;;;;;0.20;0.20;;;;;;;;;;7392105;19;20488;-61
2023/01/12 06:43:04;;;;;;;0.20;0.20;;;;;;;;;;7387884;19;20126;-61
2023/01/12 06:45:30;;;;;;;0.40;0.40;;;;;;;;;;7393041;19;20145;-61
2023/01/12 06:47:56;;;;;;;0.57;0.57;;;;;;;;;;7394187;19;20116;-61
2023/01/12 06:50:21;;;;;;;0.43;0.43;;;;;;;;;;7388334;19;20153;-61
2023/01/12 06:52:46;;;;;;;0.60;0.60;;;;;;;;;;7392646;19;20636;-61
2023/01/12 06:55:12;;;;;;;0.40;0.40;;;;;;;;;;7390414;19;20159;-61
2023/01/12 06:57:37;;;;;;;0.60;0.60;;;;;;;;;;7385600;19;20345;-60
2023/01/12 07:00:04;;;;;;;0.40;0.40;;;;;;;;;;7383259;19;20146;-62
2023/01/12 07:02:29;;;;;;;0.77;0.67;;;;;;;;;;7384612;19;20121;-62
2023/01/12 07:04:55;;;;;;;0.47;0.47;;;;;;;;;;7378418;19;20173;-62
2023/01/12 07:07:20;;;;;;;0.73;0.50;;;;;;;;;;7382561;19;20594;-63
2023/01/12 07:09:45;;;;;;;0.20;0.20;;;;;;;;;;7382725;19;20197;-63
2023/01/12 07:12:11;;;;;;;0.30;0.30;;;;;;;;;;7377177;19;20687;-63
2023/01/12 07:14:36;;;;;;;0.30;0.30;;;;;;;;;;7388467;19;20149;-62
2023/01/12 07:17:02;;;;;;;0.40;0.40;;;;;;;;;;7378743;19;20208;-63
2023/01/12 07:19:27;;;;;;;0.30;0.30;;;;;;;;;;7388412;19;20113;-61
2023/01/12 07:21:52;;;;;;;0.30;0.30;;;;;;;;;;7386665;19;20862;-61
2023/01/12 07:24:17;;;;;;;0.40;0.40;;;;;;;;;;7390701;19;20149;-61
2023/01/12 07:26:43;;;;;;;0.27;0.27;;;;;;;;;;7384371;19;20121;-61
2023/01/12 07:29:10;;;;;;;0.43;0.43;;;;;;;;;;7386270;19;20125;-61
2023/01/12 07:31:35;;;;;;;0.67;0.67;;;;;;;;;;7384265;19;20458;-61
2023/01/12 07:34:01;;;;;;;0.30;0.30;;;;;;;;;;7380668;19;20176;-61
2023/01/12 07:36:26;;;;;;;0.53;0.47;;;;;;;;;;7381974;19;20150;-61
2023/01/12 07:38:51;;;;;;;0.30;0.30;;;;;;;;;;7384444;19;20125;-61
2023/01/12 07:44:00;;;;;;;0.40;0.40;;;;;;;;;;7385841;19;20160;-61
2023/01/12 07:46:26;;;;;;;0.20;0.20;;;;;;;;;;7380601;19;20452;-61
2023/01/12 07:48:51;;;;;;;0.37;0.37;;;;;;;;;;7383591;19;20117;-61
2023/01/12 07:51:16;;;;;;;0.37;0.37;;;;;;;;;;7385257;19;20129;-61
2023/01/12 07:53:42;;;;;;;0.20;0.20;;;;;;;;;;7391203;19;20149;-61
2023/01/12 07:56:08;;;;;;;0.30;0.30;;;;;;;;;;7385341;19;20129;-61
2023/01/12 07:58:34;;;;;;;0.50;0.50;;;;;;;;;;7382122;19;20123;-61
2023/01/12 08:01:00;;;;;;;0.30;0.30;;;;;;;;;;7378833;19;20184;-61
2023/01/12 08:03:26;;;;;;;0.20;0.20;;;;;;;;;;7388937;19;20486;-61
2023/01/12 08:05:52;;;;;;;0.30;0.30;;;;;;;;;;7385425;19;20137;-61
2023/01/12 08:08:18;;;;;;;0.43;0.43;;;;;;;;;;7380129;19;20428;-61
2023/01/12 08:10:46;;;;;;;0.40;0.40;;;;;;;;;;7393061;19;20484;-61
2023/01/12 08:13:11;;;;;;;0.43;0.43;;;;;;;;;;7391461;19;20141;-61
2023/01/12 08:15:44;;;;;;;1.33;0.70;;;;;;;;;;7392352;19;20116;-61
2023/01/12 08:18:17;;;;;;;0.67;0.57;;;;;;;;;;7392762;19;20125;-61
2023/01/12 08:20:43;;;;;;;0.30;0.30;;;;;;;;;;7392058;19;20196;-61
2023/01/12 08:23:24;;;;;;;1.70;0.70;;;;;;;;;;7390560;19;20129;-61
2023/01/12 08:25:55;;;;;;;0.70;0.70;;;;;;;;;;7392177;19;20622;-61
2023/01/12 08:28:25;;;;;;;1.07;0.70;;;;;;;;;;7392699;19;20150;-61
2023/01/12 08:30:50;;;;;;;2.30;0.47;;;;;;;;;;7392986;19;20121;-61
2023/01/12 08:33:16;;;;;;;0.20;0.20;;;;;;;;;;7390916;19;20148;-61
2023/01/12 08:35:41;;;;;;;0.30;0.30;;;;;;;;;;7392778;19;20125;-61
2023/01/12 08:38:07;;;;;;;0.20;0.20;;;;;;;;;;7390267;19;20560;-61
2023/01/12 08:44:00;;;;;;;0.40;0.40;;;;;;;;;;7392003;19;20155;-61
2023/01/12 08:46:06;;;;;;;2.47;0.53;;;;;;;;;;7390636;19;20598;-61
2023/01/12 08:48:33;;;;;;;0.20;0.20;;;;;;;;;;7389259;19;20121;-61
2023/01/12 08:50:59;;;;;;;0.60;0.40;;;;;;;;;;7393579;19;20125;-61
2023/01/12 08:53:24;;;;;;;0.40;0.40;;;;;;;;;;7389046;19;20144;-61
2023/01/12 08:55:52;;;;;;;0.33;0.33;;;;;;;;;;7391990;19;20147;-61
2023/01/12 08:58:18;;;;;;;0.30;0.30;;;;;;;;;;7389844;19;20128;-61
2023/01/12 09:00:43;;;;;;;0.30;0.30;;;;;;;;;;7390546;19;20465;-61
2023/01/12 09:03:08;;;;;;;0.40;0.40;;;;;;;;;;7392272;19;20160;-61
2023/01/12 09:05:34;;;;;;;0.40;0.40;;;;;;;;;;7389544;19;20132;-61
2023/01/12 09:07:59;;;;;;;0.30;0.30;;;;;;;;;;7392662;19;20485;-61
2023/01/12 09:10:24;;;;;;;0.30;0.30;;;;;;;;;;7390642;19;20148;-61
2023/01/12 09:12:50;;;;;;;0.37;0.37;;;;;;;;;;7391494;19;20113;-61
2023/01/12 09:15:15;;;;;;;0.30;0.30;;;;;;;;;;7391538;19;20121;-61
2023/01/12 09:17:40;;;;;;;0.50;0.50;;;;;;;;;;7392469;19;20117;-61
2023/01/12 09:20:06;;;;;;;0.30;0.30;;;;;;;;;;7391513;19;20121;-61
2023/01/12 09:22:31;;;;;;;0.20;0.20;;;;;;;;;;7392479;19;20117;-61
2023/01/12 09:24:57;;;;;;;0.30;0.30;;;;;;;;;;7389823;19;20170;-61
2023/01/12 09:27:22;;;;;;;0.30;0.30;;;;;;;;;;7390257;19;20156;-61
2023/01/12 09:29:47;;;;;;;0.70;0.70;;;;;;;;;;7390589;19;20144;-61
2023/01/12 09:32:12;;;;;;;0.20;0.20;;;;;;;;;;7390823;19;20614;-62
2023/01/12 09:34:38;;;;;;;0.30;0.30;;;;;;;;;;7390457;19;20149;-61
2023/01/12 09:37:03;;;;;;;0.67;0.60;;;;;;;;;;7390385;19;20144;-61
2023/01/12 09:39:29;;;;;;;0.20;0.20;;;;;;;;;;7390842;19;20599;-61
2023/01/12 09:47:33;;;;;;;0.30;0.30;;;;;;;;;;7389366;19;20654;-61
2023/01/12 09:50:13;;;;;;;0.30;0.30;;;;;;;;;;7388763;19;20125;-61
2023/01/12 09:52:43;;;;;;;0.20;0.20;;;;;;;;;;7389561;19;20158;-61
2023/01/12 09:55:13;;;;;;;0.30;0.30;;;;;;;;;;7388196;19;20161;-61
2023/01/12 09:58:09;;;;;;;0.30;0.30;;;;;;;;;;7389562;19;20497;-61
2023/01/12 10:00:34;;;;;;;0.20;0.20;;;;;;;;;;7388411;19;20148;-61
2023/01/12 10:03:14;;;;;;;0.20;0.20;;;;;;;;;;7389462;19;20125;-61
2023/01/12 10:05:46;;;;;;;0.20;0.20;;;;;;;;;;7389542;19;20161;-61
2023/01/12 10:08:15;;;;;;;0.30;0.30;;;;;;;;;;7394948;19;20197;-61
2023/01/12 10:10:49;;;;;;;0.20;0.20;;;;;;;;;;7396438;19;20647;-61
2023/01/12 10:13:14;;;;;;;0.20;0.20;;;;;;;;;;7396571;19;20543;-61
2023/01/12 10:15:56;;;;;;;0.70;0.70;;;;;;;;;;7397540;19;20125;-61
2023/01/12 10:18:44;;;;;;;0.20;0.20;;;;;;;;;;7394848;19;20148;-61
2023/01/12 10:21:10;;;;;;;0.67;0.67;;;;;;;;;;7396918;19;20230;-61
2023/01/12 10:23:35;;;;;;;0.20;0.20;;;;;;;;;;7394579;19;20149;-61
2023/01/12 10:26:01;;;;;;;0.20;0.20;;;;;;;;;;7393973;19;20662;-61
2023/01/12 10:28:28;;;;;;;0.20;0.20;;;;;;;;;;7396307;19;20149;-62
2023/01/12 10:30:54;;;;;;;0.60;0.60;;;;;;;;;;7395385;19;20129;-61
2023/01/12 10:33:22;;;;;;;0.30;0.30;;;;;;;;;;7394200;19;20152;-61
2023/01/12 10:36:03;;;;;;;0.53;0.53;;;;;;;;;;7396646;19;20571;-61
2023/01/12 10:38:37;;;;;;;0.20;0.20;;;;;;;;;;7394443;19;20125;-61
2023/01/12 10:41:21;;;;;;;0.20;0.20;;;;;;;;;;7396510;19;20125;-61
2023/01/12 10:43:58;;;;;;;0.30;0.30;;;;;;;;;;7394355;19;20176;-61
2023/01/12 10:46:30;;;;;;;0.30;0.30;;;;;;;;;;7395028;19;20124;-61
2023/01/12 10:49:17;;;;;;;0.30;0.30;;;;;;;;;;7395531;19;20161;-61
2023/01/12 10:51:55;;;;;;;0.20;0.20;;;;;;;;;;7396237;19;20492;-61
2023/01/12 10:54:24;;;;;;;0.20;0.20;;;;;;;;;;7392614;19;20160;-61
2023/01/12 10:56:56;;;;;;;0.30;0.30;;;;;;;;;;7393985;19;20131;-61
2023/01/12 10:59:25;;;;;;;0.73;0.73;;;;;;;;;;7394298;19;20606;-61
2023/01/12 11:01:58;;;;;;;0.20;0.20;;;;;;;;;;7394975;19;20117;-61
2023/01/12 11:04:26;;;;;;;0.37;0.37;;;;;;;;;;7395379;19;20157;-61
2023/01/12 11:07:07;;;;;;;0.30;0.30;;;;;;;;;;7394128;19;20121;-61
2023/01/12 11:09:33;;;;;;;0.20;0.20;;;;;;;;;;7394126;19;20153;-61
2023/01/12 11:12:00;;;;;;;0.30;0.30;;;;;;;;;;7394014;19;20121;-61
2023/01/12 11:14:31;;;;;;;0.33;0.33;;;;;;;;;;7391476;19;20189;-61
2023/01/12 11:17:22;;;;;;;1.20;0.50;;;;;;;;;;7395211;19;20121;-61
2023/01/12 11:19:49;;;;;;;0.30;0.30;;;;;;;;;;7393875;19;20144;-62
2023/01/12 11:22:21;;;;;;;0.20;0.20;;;;;;;;;;7394183;19;20117;-61
2023/01/12 11:24:59;;;;;;;0.30;0.30;;;;;;;;;;7391676;19;20506;-62
2023/01/12 11:27:46;;;;;;;0.20;0.20;;;;;;;;;;7393898;19;20615;-61
2023/01/12 11:30:22;;;;;;;0.30;0.30;;;;;;;;;;7392036;19;20128;-61
2023/01/12 11:32:57;;;;;;;0.20;0.20;;;;;;;;;;7395665;19;20128;-61
2023/01/12 11:35:44;;;;;;;0.30;0.30;;;;;;;;;;7394215;19;20124;-62
2023/01/12 11:38:16;;;;;;;0.30;0.30;;;;;;;;;;7392594;19;20124;-61
2023/01/12 11:40:43;;;;;;;0.20;0.20;;;;;;;;;;7393423;19;20144;-61
2023/01/12 11:46:14;;;;;;;0.70;0.70;;;;;;;;;;7395166;19;20582;-62
2023/01/12 11:49:16;;;;;;;0.20;0.20;;;;;;;;;;7389759;19;20496;-61
2023/01/12 11:51:42;;;;;;;0.20;0.20;;;;;;;;;;7395490;19;20121;-61
2023/01/12 11:54:15;;;;;;;0.37;0.37;;;;;;;;;;7392972;19;20176;-62
2023/01/12 11:56:53;;;;;;;0.20;0.20;;;;;;;;;;7393124;19;20128;-62
2023/01/12 11:59:27;;;;;;;0.30;0.30;;;;;;;;;;7393093;19;20632;-62
2023/01/12 12:01:58;;;;;;;1.17;0.63;;;;;;;;;;7392018;19;20257;-61
2023/01/12 12:04:54;;;;;;;0.40;0.40;;;;;;;;;;7392743;19;20152;-62
2023/01/12 12:07:32;;;;;;;0.30;0.30;;;;;;;;;;7390481;19;20121;-61
2023/01/12 12:10:17;;;;;;;0.40;0.40;;;;;;;;;;7390398;19;20157;-61
2023/01/12 12:13:01;;;;;;;0.30;0.30;;;;;;;;;;7392828;19;20145;-61
2023/01/12 12:15:40;;;;;;;0.20;0.20;;;;;;;;;;7394069;19;20152;-62
2023/01/12 12:18:37;;;;;;;0.30;0.30;;;;;;;;;;7393356;19;20125;-62
2023/01/12 12:21:24;;;;;;;0.30;0.30;;;;;;;;;;7392375;19;20137;-61
2023/01/12 12:24:20;;;;;;;0.27;0.27;;;;;;;;;;7393185;19;20216;-61
2023/01/12 12:27:24;;;;;;;0.20;0.20;;;;;;;;;;7389672;19;20136;-62
2023/01/12 12:30:14;;;;;;;0.30;0.30;;;;;;;;;;7387265;19;20136;-61
2023/01/12 12:32:59;;;;;;;0.30;0.30;;;;;;;;;;7393153;19;20125;-61
2023/01/12 12:35:24;;;;;;;0.20;0.20;;;;;;;;;;7393810;19;20135;-61
2023/01/12 12:38:09;;;;;;;0.30;0.30;;;;;;;;;;7393349;19;20125;-61
2023/01/12 12:46:37;;;;;;;0.20;0.20;;;;;;;;;;7391936;19;20132;-61
2023/01/12 12:49:10;;;;;;;0.50;0.50;;;;;;;;;;7391106;19;20170;-62
2023/01/12 12:51:37;;;;;;;0.63;0.63;;;;;;;;;;7391858;19;20145;-62
2023/01/12 12:54:05;;;;;;;0.40;0.40;;;;;;;;;;7390570;19;20619;-61
2023/01/12 12:56:33;;;;;;;0.37;0.37;;;;;;;;;;7390929;19;20121;-62
2023/01/12 12:59:00;;;;;;;0.20;0.20;;;;;;;;;;7389792;19;20485;-61
2023/01/12 13:01:28;;;;;;;0.20;0.20;;;;;;;;;;7392586;19;20148;-61
2023/01/12 13:03:55;;;;;;;0.20;0.20;;;;;;;;;;7390573;19;20149;-61
2023/01/12 13:06:26;;;;;;;0.30;0.30;;;;;;;;;;7390452;19;20121;-62
2023/01/12 13:08:54;;;;;;;0.30;0.30;;;;;;;;;;7389524;19;20184;-61
2023/01/12 13:11:46;;;;;;;0.40;0.40;;;;;;;;;;7388738;19;20460;-61
2023/01/12 13:14:35;;;;;;;0.30;0.30;;;;;;;;;;7389151;19;20157;-61
2023/01/12 13:17:18;;;;;;;0.30;0.30;;;;;;;;;;7389841;19;20145;-61
2023/01/12 13:19:47;;;;;;;0.20;0.20;;;;;;;;;;7389822;19;20569;-61
2023/01/12 13:22:31;;;;;;;0.30;0.30;;;;;;;;;;7389410;19;20124;-61
2023/01/12 13:25:19;;;;;;;0.30;0.30;;;;;;;;;;7389085;19;20196;-61
2023/01/12 13:27:59;;;;;;;0.30;0.30;;;;;;;;;;7392132;19;20163;-61
2023/01/12 13:30:30;;;;;;;0.30;0.30;;;;;;;;;;7390518;19;20603;-61
2023/01/12 13:33:25;;;;;;;0.30;0.30;;;;;;;;;;7390785;19;20132;-61
2023/01/12 13:35:50;;;;;;;0.30;0.30;;;;;;;;;;7388189;19;20141;-61
2023/01/12 13:38:43;;;;;;;0.30;0.30;;;;;;;;;;7390743;19;20117;-61
2023/01/12 13:43:13;;;;;;;0.57;0.57;;;;;;;;;;7397180;19;20129;-62
2023/01/12 13:43:59;;;;;;;0.20;0.20;;;;;;;;;;7397283;19;20148;-62
2023/01/12 13:46:28;;;;;;;0.30;0.30;;;;;;;;;;7394874;19;20136;-62
2023/01/12 13:48:55;;;;;;;0.30;0.30;;;;;;;;;;7396627;19;20481;-62
2023/01/12 13:52:07;;;;;;;0.20;0.20;;;;;;;;;;7398107;19;20125;-62
2023/01/12 13:54:33;;;;;;;0.27;0.27;;;;;;;;;;7396042;19;20177;-62
2023/01/12 13:57:02;;;;;;;0.40;0.40;;;;;;;;;;7396923;19;20113;-62
2023/01/12 13:59:29;;;;;;;0.20;0.20;;;;;;;;;;7396489;19;20147;-62
2023/01/12 14:01:55;;;;;;;0.73;0.73;;;;;;;;;;7396549;19;20124;-62
2023/01/12 14:04:49;;;;;;;0.30;0.30;;;;;;;;;;7395388;19;20152;-62
2023/01/12 14:07:44;;;;;;;0.20;0.20;;;;;;;;;;7396531;19;20137;-62
2023/01/12 14:10:20;;;;;;;0.33;0.33;;;;;;;;;;7396949;19;20125;-62
2023/01/12 14:13:03;;;;;;;0.97;0.87;;;;;;;;;;7398537;19;20121;-62
2023/01/12 14:18:18;;;;;;;0.30;0.30;;;;;;;;;;7397216;19;20139;-62
2023/01/12 14:20:49;;;;;;;0.70;0.50;;;;;;;;;;7396253;19;20121;-62
2023/01/12 14:23:25;;;;;;;0.20;0.20;;;;;;;;;;7394807;19;20141;-62
2023/01/12 14:26:13;;;;;;;0.40;0.40;;;;;;;;;;7395287;19;20454;-62
2023/01/12 14:28:43;;;;;;;0.20;0.20;;;;;;;;;;7397333;19;20116;-62
2023/01/12 14:31:28;;;;;;;0.20;0.20;;;;;;;;;;7394638;19;20199;-61
2023/01/12 14:33:55;;;;;;;0.20;0.20;;;;;;;;;;7395066;19;20187;-62
2023/01/12 14:36:24;;;;;;;0.20;0.20;;;;;;;;;;7396310;19;20129;-62
2023/01/12 14:38:51;;;;;;;0.30;0.30;;;;;;;;;;7392792;19;20137;-62
2023/01/12 14:46:50;;;;;;;0.30;0.30;;;;;;;;;;7394568;19;20132;-62
2023/01/12 14:49:19;;;;;;;0.30;0.30;;;;;;;;;;7395211;19;20137;-62
2023/01/12 14:51:52;;;;;;;0.20;0.20;;;;;;;;;;7392747;19;20175;-61
2023/01/12 14:54:19;;;;;;;0.20;0.20;;;;;;;;;;7392759;19;20152;-61
2023/01/12 14:56:58;;;;;;;0.30;0.30;;;;;;;;;;7395544;19;20121;-62
2023/01/12 14:59:29;;;;;;;0.20;0.20;;;;;;;;;;7394329;19;20136;-61
2023/01/12 15:02:13;;;;;;;0.30;0.30;;;;;;;;;;7393313;19;20492;-61
2023/01/12 15:04:57;;;;;;;0.30;0.30;;;;;;;;;;7370054;19;20180;-62
2023/01/12 15:07:25;;;;;;;0.30;0.30;;;;;;;;;;7385065;19;20113;-62
2023/01/12 15:09:56;;;;;;;0.30;0.30;;;;;;;;;;7391790;19;20146;-62
2023/01/12 15:12:27;;;;;;;0.30;0.30;;;;;;;;;;7387349;19;20121;-62
2023/01/12 15:14:53;;;;;;;0.20;0.20;;;;;;;;;;7377464;19;20626;-61
2023/01/12 15:25:36;;;;;;;0.30;0.30;;;;;;;;;;7385476;19;20618;-61
2023/01/12 15:28:04;;;;;;;0.30;0.30;;;;;;;;;;7382097;19;20495;-62
2023/01/12 15:30:31;;;;;;;0.30;0.30;;;;;;;;;;7387793;19;20146;-62
2023/01/12 15:32:56;;;;;;;0.20;0.20;;;;;;;;;;7380410;19;20125;-62
2023/01/12 15:35:24;;;;;;;0.30;0.30;;;;;;;;;;7388179;19;20132;-61
2023/01/12 15:37:50;;;;;;;0.30;0.30;;;;;;;;;;7391033;19;20121;-61
2023/01/12 15:40:17;;;;;;;0.20;0.20;;;;;;;;;;7388844;19;20591;-61
2023/01/12 15:42:42;;;;;;;0.20;0.20;;;;;;;;;;7393531;19;20129;-61
2023/01/12 15:45:16;;;;;;;0.30;0.30;;;;;;;;;;7389655;19;20165;-61
2023/01/12 15:47:41;;;;;;;0.20;0.20;;;;;;;;;;7393628;19;20134;-61
2023/01/12 15:50:07;;;;;;;0.60;0.60;;;;;;;;;;7393204;19;20129;-61
2023/01/12 15:52:32;;;;;;;0.20;0.20;;;;;;;;;;7393110;19;20504;-61
2023/01/12 15:54:58;;;;;;;0.20;0.20;;;;;;;;;;7388424;19;20643;-61